createdAt,value
2018-05-15T00:00:04.854Z,0
2018-05-15T00:01:04.734Z,0
2018-05-15T00:02:04.810Z,0
2018-05-15T00:03:04.816Z,0
2018-05-15T00:04:04.804Z,0
2018-05-15T00:05:04.863Z,0
2018-05-15T00:06:04.873Z,0
2018-05-15T00:07:04.842Z,0
2018-05-15T00:08:04.878Z,0
2018-05-15T00:09:04.779Z,0
2018-05-15T00:10:04.842Z,0
2018-05-15T00:11:04.778Z,0
2018-05-15T00:12:04.847Z,0
2018-05-15T00:13:04.790Z,0
2018-05-15T00:14:04.846Z,0
2018-05-15T00:15:04.848Z,0
2018-05-15T00:16:04.854Z,0
2018-05-15T00:17:04.779Z,0
2018-05-15T00:18:04.787Z,0
2018-05-15T00:19:04.820Z,0
2018-05-15T00:20:04.767Z,0
2018-05-15T00:21:04.884Z,0
2018-05-15T00:22:04.898Z,0
2018-05-15T00:23:04.816Z,0
2018-05-15T00:24:04.873Z,0
2018-05-15T00:25:04.851Z,0
2018-05-15T00:26:04.758Z,0
2018-05-15T00:27:04.813Z,0
2018-05-15T00:28:04.822Z,0
2018-05-15T00:29:04.799Z,0
2018-05-15T00:30:04.854Z,0
2018-05-15T00:31:04.854Z,0
2018-05-15T00:32:04.860Z,0
2018-05-15T00:33:04.884Z,0
2018-05-15T00:34:04.758Z,0
2018-05-15T00:35:04.831Z,0
2018-05-15T00:36:04.838Z,0
2018-05-15T00:37:04.813Z,0
2018-05-15T00:38:04.779Z,0
2018-05-15T00:39:04.826Z,0
2018-05-15T00:40:04.835Z,0
2018-05-15T00:41:04.765Z,0
2018-05-15T00:42:04.791Z,0
2018-05-15T00:43:04.893Z,0
2018-05-15T00:44:04.903Z,0
2018-05-15T00:45:04.841Z,0
2018-05-15T00:46:04.864Z,0
2018-05-15T00:47:04.829Z,0
2018-05-15T00:48:04.862Z,0
2018-05-15T00:49:04.870Z,0
2018-05-15T00:50:04.755Z,0
2018-05-15T00:51:04.869Z,0
2018-05-15T00:52:04.804Z,0
2018-05-15T00:53:04.894Z,0
2018-05-15T00:54:04.835Z,0
2018-05-15T00:55:04.880Z,0
2018-05-15T00:56:04.888Z,0
2018-05-15T00:57:04.881Z,0
2018-05-15T00:58:04.876Z,0
2018-05-15T00:59:04.895Z,0
2018-05-15T01:00:04.898Z,0
2018-05-15T01:01:04.903Z,0
2018-05-15T01:02:04.771Z,0
2018-05-15T01:03:04.913Z,0
2018-05-15T01:04:04.898Z,0
2018-05-15T01:05:04.904Z,0
2018-05-15T01:06:04.957Z,0
2018-05-15T01:07:04.912Z,0
2018-05-15T01:08:04.876Z,0
2018-05-15T01:09:04.841Z,0
2018-05-15T01:10:04.800Z,0
2018-05-15T01:11:04.803Z,0
2018-05-15T01:12:04.879Z,0
2018-05-15T01:13:04.818Z,0
2018-05-15T01:14:04.862Z,0
2018-05-15T01:15:04.899Z,0
2018-05-15T01:16:04.880Z,0
2018-05-15T01:17:04.914Z,0
2018-05-15T01:18:04.854Z,0
2018-05-15T01:19:04.887Z,0
2018-05-15T01:20:04.824Z,0
2018-05-15T01:21:04.826Z,0
2018-05-15T01:22:04.889Z,0
2018-05-15T01:23:04.820Z,0
2018-05-15T01:24:04.889Z,0
2018-05-15T01:25:04.829Z,0
2018-05-15T01:26:04.863Z,0
2018-05-15T01:27:04.827Z,0
2018-05-15T01:28:04.912Z,0
2018-05-15T01:29:04.884Z,0
2018-05-15T01:30:04.797Z,0
2018-05-15T01:31:04.764Z,0
2018-05-15T01:32:04.887Z,0
2018-05-15T01:33:04.880Z,0
2018-05-15T01:34:04.816Z,0
2018-05-15T01:35:04.844Z,0
2018-05-15T01:36:04.804Z,0
2018-05-15T01:37:04.844Z,0
2018-05-15T01:38:04.891Z,0
2018-05-15T01:39:04.888Z,0
2018-05-15T01:40:04.861Z,0
2018-05-15T01:41:04.865Z,0
2018-05-15T01:42:04.802Z,0
2018-05-15T01:43:04.838Z,0
2018-05-15T01:44:04.767Z,0
2018-05-15T01:45:04.891Z,0
2018-05-15T01:46:04.762Z,0
2018-05-15T01:47:04.843Z,0
2018-05-15T01:48:04.891Z,0
2018-05-15T01:49:04.901Z,0
2018-05-15T01:50:04.822Z,0
2018-05-15T01:51:04.904Z,0
2018-05-15T01:52:04.902Z,0
2018-05-15T01:53:04.828Z,0
2018-05-15T01:54:04.827Z,0
2018-05-15T01:55:04.827Z,0
2018-05-15T01:56:04.900Z,0
2018-05-15T01:57:04.848Z,0
2018-05-15T01:58:04.782Z,0
2018-05-15T01:59:04.903Z,0
2018-05-15T02:00:04.841Z,0
2018-05-15T02:01:04.775Z,0
2018-05-15T02:02:04.851Z,0
2018-05-15T02:03:04.901Z,0
2018-05-15T02:04:04.780Z,0
2018-05-15T02:05:04.846Z,0
2018-05-15T02:06:04.845Z,0
2018-05-15T02:07:04.902Z,0
2018-05-15T02:08:04.852Z,0
2018-05-15T02:09:04.916Z,0
2018-05-15T02:10:04.918Z,0
2018-05-15T02:11:04.928Z,0
2018-05-15T02:12:04.938Z,0
2018-05-15T02:13:04.923Z,0
2018-05-15T02:14:04.819Z,0
2018-05-15T02:15:04.953Z,0
2018-05-15T02:16:04.982Z,0
2018-05-15T02:17:04.912Z,0
2018-05-15T02:18:04.921Z,0
2018-05-15T02:19:04.890Z,0
2018-05-15T02:20:04.965Z,0
2018-05-15T02:21:04.953Z,0
2018-05-15T02:22:05.003Z,0
2018-05-15T02:23:04.850Z,0
2018-05-15T02:24:04.927Z,0
2018-05-15T02:25:04.906Z,0
2018-05-15T02:26:04.902Z,0
2018-05-15T02:27:04.928Z,0
2018-05-15T02:28:04.849Z,0
2018-05-15T02:29:04.962Z,0
2018-05-15T02:30:04.949Z,0
2018-05-15T02:31:04.918Z,0
2018-05-15T02:32:04.874Z,0
2018-05-15T02:33:04.871Z,0
2018-05-15T02:34:04.867Z,0
2018-05-15T02:35:04.934Z,0
2018-05-15T02:36:04.943Z,0
2018-05-15T02:37:04.905Z,0
2018-05-15T02:38:04.943Z,0
2018-05-15T02:39:04.917Z,0
2018-05-15T02:40:04.895Z,0
2018-05-15T02:41:04.972Z,0
2018-05-15T02:42:04.922Z,0
2018-05-15T02:43:04.907Z,0
2018-05-15T02:44:04.901Z,0
2018-05-15T02:45:04.975Z,4
2018-05-15T02:46:04.913Z,4
2018-05-15T02:47:04.964Z,4
2018-05-15T02:48:04.956Z,4
2018-05-15T02:49:04.911Z,4
2018-05-15T02:50:04.972Z,4
2018-05-15T02:51:04.960Z,4
2018-05-15T02:52:04.871Z,8
2018-05-15T02:53:04.785Z,4
2018-05-15T02:54:04.946Z,8
2018-05-15T02:55:04.949Z,8
2018-05-15T02:56:04.902Z,8
2018-05-15T02:57:04.948Z,12
2018-05-15T02:58:04.928Z,12
2018-05-15T02:59:04.990Z,12
2018-05-15T03:00:04.890Z,20
2018-05-15T03:01:04.921Z,24
2018-05-15T03:02:04.912Z,20
2018-05-15T03:03:04.971Z,28
2018-05-15T03:04:04.995Z,32
2018-05-15T03:05:04.985Z,36
2018-05-15T03:06:05.003Z,40
2018-05-15T03:07:04.913Z,48
2018-05-15T03:08:04.959Z,52
2018-05-15T03:09:04.991Z,64
2018-05-15T03:10:04.981Z,72
2018-05-15T03:11:04.931Z,84
2018-05-15T03:12:04.899Z,92
2018-05-15T03:13:04.958Z,108
2018-05-15T03:14:04.916Z,120
2018-05-15T03:15:04.937Z,136
2018-05-15T03:16:04.935Z,152
2018-05-15T03:17:04.909Z,172
2018-05-15T03:18:04.869Z,192
2018-05-15T03:19:04.899Z,212
2018-05-15T03:20:04.957Z,236
2018-05-15T03:21:04.967Z,264
2018-05-15T03:22:04.918Z,288
2018-05-15T03:23:04.897Z,324
2018-05-15T03:24:04.963Z,356
2018-05-15T03:25:04.898Z,388
2018-05-15T03:26:04.966Z,424
2018-05-15T03:27:04.971Z,464
2018-05-15T03:28:04.902Z,504
2018-05-15T03:29:04.973Z,540
2018-05-15T03:30:04.912Z,584
2018-05-15T03:31:04.905Z,620
2018-05-15T03:32:04.971Z,664
2018-05-15T03:33:04.908Z,708
2018-05-15T03:34:04.911Z,752
2018-05-15T03:35:04.979Z,804
2018-05-15T03:36:04.995Z,852
2018-05-15T03:37:04.993Z,904
2018-05-15T03:38:04.910Z,960
2018-05-15T03:39:04.935Z,1020
2018-05-15T03:40:04.980Z,1084
2018-05-15T03:41:04.916Z,1156
2018-05-15T03:42:04.913Z,1232
2018-05-15T03:43:04.979Z,1312
2018-05-15T03:44:04.976Z,1392
2018-05-15T03:45:04.981Z,1480
2018-05-15T03:46:04.980Z,1556
2018-05-15T03:47:05.009Z,1628
2018-05-15T03:48:04.984Z,1692
2018-05-15T03:49:04.906Z,1756
2018-05-15T03:50:05.009Z,1820
2018-05-15T03:51:04.986Z,1876
2018-05-15T03:52:04.953Z,1928
2018-05-15T03:53:05.009Z,1992
2018-05-15T03:54:05.002Z,2060
2018-05-15T03:55:04.985Z,2124
2018-05-15T03:56:04.945Z,2192
2018-05-15T03:57:04.986Z,2268
2018-05-15T03:58:04.886Z,2368
2018-05-15T03:59:05.008Z,2464
2018-05-15T04:00:04.986Z,2548
2018-05-15T04:01:04.991Z,2612
2018-05-15T04:02:04.925Z,2676
2018-05-15T04:03:04.986Z,2748
2018-05-15T04:04:04.967Z,2780
2018-05-15T04:05:04.926Z,2808
2018-05-15T04:06:04.958Z,2812
2018-05-15T04:07:04.890Z,2828
2018-05-15T04:08:05.012Z,2840
2018-05-15T04:09:04.917Z,2860
2018-05-15T04:10:04.916Z,2884
2018-05-15T04:11:05.183Z,2924
2018-05-15T04:12:05.016Z,2972
2018-05-15T04:13:05.029Z,3028
2018-05-15T04:14:04.955Z,3076
2018-05-15T04:15:04.962Z,3104
2018-05-15T04:16:04.964Z,3116
2018-05-15T04:17:04.923Z,3148
2018-05-15T04:18:04.905Z,3188
2018-05-15T04:19:04.934Z,3240
2018-05-15T04:20:04.901Z,3284
2018-05-15T04:21:04.954Z,3340
2018-05-15T04:22:04.926Z,3412
2018-05-15T04:23:04.984Z,3480
2018-05-15T04:24:04.963Z,3596
2018-05-15T04:25:04.867Z,3700
2018-05-15T04:26:04.937Z,3788
2018-05-15T04:27:04.938Z,3856
2018-05-15T04:28:04.909Z,3960
2018-05-15T04:29:04.939Z,4120
2018-05-15T04:30:04.943Z,4308
2018-05-15T04:31:04.957Z,4584
2018-05-15T04:32:05.012Z,4972
2018-05-15T04:33:04.942Z,5372
2018-05-15T04:34:04.945Z,5848
2018-05-15T04:35:04.990Z,6520
2018-05-15T04:36:05.007Z,7220
2018-05-15T04:37:04.946Z,7804
2018-05-15T04:38:05.013Z,8672
2018-05-15T04:39:04.990Z,9436
2018-05-15T04:40:04.922Z,10240
2018-05-15T04:41:04.917Z,11296
2018-05-15T04:42:04.982Z,12284
2018-05-15T04:43:05.033Z,13024
2018-05-15T04:44:04.937Z,13780
2018-05-15T04:45:04.940Z,14592
2018-05-15T04:46:05.055Z,15076
2018-05-15T04:47:05.052Z,15476
2018-05-15T04:48:05.055Z,15748
2018-05-15T04:49:05.018Z,15876
2018-05-15T04:50:05.045Z,16024
2018-05-15T04:51:04.998Z,16256
2018-05-15T04:52:04.977Z,16344
2018-05-15T04:53:05.023Z,16468
2018-05-15T04:54:05.001Z,16332
2018-05-15T04:55:05.045Z,16232
2018-05-15T04:56:04.926Z,16052
2018-05-15T04:57:05.021Z,15776
2018-05-15T04:58:04.931Z,15504
2018-05-15T04:59:04.926Z,15168
2018-05-15T05:00:04.897Z,14752
2018-05-15T05:01:05.018Z,14332
2018-05-15T05:02:05.017Z,13968
2018-05-15T05:03:04.933Z,13544
2018-05-15T05:04:05.027Z,13192
2018-05-15T05:05:04.950Z,12928
2018-05-15T05:06:04.933Z,12684
2018-05-15T05:07:04.956Z,12464
2018-05-15T05:08:05.041Z,12344
2018-05-15T05:09:04.966Z,12256
2018-05-15T05:10:04.963Z,12248
2018-05-15T05:11:05.041Z,12228
2018-05-15T05:12:05.035Z,12196
2018-05-15T05:13:05.035Z,12156
2018-05-15T05:14:05.042Z,12148
2018-05-15T05:15:04.929Z,12176
2018-05-15T05:16:04.986Z,12196
2018-05-15T05:17:04.970Z,12248
2018-05-15T05:18:04.920Z,12296
2018-05-15T05:19:05.036Z,12336
2018-05-15T05:20:04.961Z,12388
2018-05-15T05:21:05.103Z,12452
2018-05-15T05:22:05.041Z,12500
2018-05-15T05:23:05.019Z,12488
2018-05-15T05:24:05.043Z,12000
2018-05-15T05:25:05.081Z,11672
2018-05-15T05:26:04.968Z,11544
2018-05-15T05:27:05.110Z,11604
2018-05-15T05:28:05.073Z,12100
2018-05-15T05:29:04.965Z,12548
2018-05-15T05:30:04.951Z,12844
2018-05-15T05:31:04.992Z,13020
2018-05-15T05:32:04.951Z,13100
2018-05-15T05:33:05.043Z,13260
2018-05-15T05:34:05.050Z,13340
2018-05-15T05:35:05.004Z,13232
2018-05-15T05:36:05.038Z,13252
2018-05-15T05:37:04.953Z,13160
2018-05-15T05:38:04.916Z,13352
2018-05-15T05:39:05.039Z,13536
2018-05-15T05:40:04.990Z,13828
2018-05-15T05:41:04.951Z,22488
2018-05-15T05:42:04.982Z,37920
2018-05-15T05:43:04.989Z,34240
2018-05-15T05:44:04.928Z,33504
2018-05-15T05:45:04.927Z,36800
2018-05-15T05:46:04.973Z,41248
2018-05-15T05:47:05.011Z,38304
2018-05-15T05:48:05.011Z,39936
2018-05-15T05:49:05.070Z,40832
2018-05-15T05:50:05.060Z,43072
2018-05-15T05:51:05.073Z,44032
2018-05-15T05:52:05.140Z,46176
2018-05-15T05:53:04.998Z,47136
2018-05-15T05:54:05.063Z,48192
2018-05-15T05:55:04.996Z,47712
2018-05-15T05:56:05.064Z,47296
2018-05-15T05:57:05.062Z,47552
2018-05-15T05:58:05.095Z,49728
2018-05-15T05:59:05.082Z,49600
2018-05-15T06:00:04.988Z,49504
2018-05-15T06:01:05.082Z,49632
2018-05-15T06:02:04.989Z,49376
2018-05-15T06:03:05.087Z,49312
2018-05-15T06:04:05.042Z,50368
2018-05-15T06:05:05.091Z,51520
2018-05-15T06:06:05.048Z,52192
2018-05-15T06:07:05.034Z,52768
2018-05-15T06:08:05.101Z,52672
2018-05-15T06:09:05.069Z,52480
2018-05-15T06:10:04.981Z,51232
2018-05-15T06:11:05.097Z,49888
2018-05-15T06:12:04.974Z,49280
2018-05-15T06:13:05.023Z,49408
2018-05-15T06:14:05.040Z,50528
2018-05-15T06:15:05.076Z,52672
2018-05-15T06:16:05.107Z,54784
2018-05-15T06:17:05.099Z,57184
2018-05-15T06:18:05.108Z,59328
2018-05-15T06:19:05.107Z,60320
2018-05-15T06:20:05.017Z,61280
2018-05-15T06:21:05.174Z,62688
2018-05-15T06:22:05.015Z,64192
2018-05-15T06:23:04.983Z,66336
2018-05-15T06:24:05.068Z,68864
2018-05-15T06:25:05.071Z,69696
2018-05-15T06:26:05.059Z,69440
2018-05-15T06:27:04.989Z,67744
2018-05-15T06:28:05.077Z,64544
2018-05-15T06:29:04.991Z,61024
2018-05-15T06:30:05.002Z,59424
2018-05-15T06:31:05.006Z,59840
2018-05-15T06:32:04.989Z,62560
2018-05-15T06:33:04.990Z,66368
2018-05-15T06:34:04.992Z,70432
2018-05-15T06:35:04.996Z,74368
2018-05-15T06:36:05.075Z,75712
2018-05-15T06:37:05.081Z,74624
2018-05-15T06:38:04.979Z,71808
2018-05-15T06:39:05.087Z,68480
2018-05-15T06:40:05.090Z,66080
2018-05-15T06:41:05.025Z,64512
2018-05-15T06:42:05.095Z,64416
2018-05-15T06:43:05.031Z,65952
2018-05-15T06:44:05.027Z,68480
2018-05-15T06:45:05.160Z,71776
2018-05-15T06:46:05.031Z,75072
2018-05-15T06:47:05.095Z,77984
2018-05-15T06:48:05.139Z,79936
2018-05-15T06:49:05.109Z,80256
2018-05-15T06:50:05.053Z,79712
2018-05-15T06:54:05.008Z,76480
2018-05-15T06:55:05.098Z,77408
2018-05-15T06:56:05.084Z,79232
2018-05-15T06:57:05.078Z,82880
2018-05-15T06:58:05.071Z,85568
2018-05-15T06:59:05.063Z,87040
2018-05-15T07:00:05.040Z,86496
2018-05-15T07:01:05.101Z,83552
2018-05-15T07:02:04.972Z,79712
2018-05-15T07:03:04.983Z,77088
2018-05-15T07:04:05.013Z,75264
2018-05-15T07:05:05.100Z,74432
2018-05-15T07:06:05.046Z,74464
2018-05-15T07:07:04.980Z,76032
2018-05-15T07:08:05.054Z,78272
2018-05-15T07:09:05.017Z,80736
2018-05-15T07:10:05.041Z,83904
2018-05-15T07:11:05.102Z,86304
2018-05-15T07:12:05.099Z,88000
2018-05-15T07:13:05.105Z,89664
2018-05-15T07:14:05.148Z,90784
2018-05-15T07:15:05.108Z,91392
2018-05-15T07:16:05.102Z,91296
2018-05-15T07:17:05.099Z,90880
2018-05-15T07:18:05.051Z,86112
2018-05-15T07:19:05.050Z,77152
2018-05-15T07:20:05.144Z,85024
2018-05-15T07:21:05.136Z,91808
2018-05-15T07:22:05.143Z,96384
2018-05-15T07:23:05.134Z,95008
2018-05-15T07:24:05.073Z,95712
2018-05-15T07:25:05.141Z,95232
2018-05-15T07:26:05.105Z,92160
2018-05-15T07:27:05.029Z,90496
2018-05-15T07:28:05.159Z,90848
2018-05-15T07:29:05.081Z,92608
2018-05-15T07:30:05.152Z,95136
2018-05-15T07:31:05.124Z,97344
2018-05-15T07:32:05.092Z,99168
2018-05-15T07:33:05.131Z,100032
2018-05-15T07:34:05.105Z,100352
2018-05-15T07:35:05.128Z,99168
2018-05-15T07:36:05.106Z,95936
2018-05-15T07:37:05.129Z,91648
2018-05-15T07:38:05.129Z,87200
2018-05-15T07:39:05.034Z,83296
2018-05-15T07:40:05.066Z,82976
2018-05-15T07:41:05.065Z,87136
2018-05-15T07:42:05.132Z,92256
2018-05-15T07:43:05.065Z,98464
2018-05-15T07:44:05.155Z,109024
2018-05-15T07:45:05.142Z,118304
2018-05-15T07:46:05.067Z,123680
2018-05-15T07:47:05.068Z,125696
2018-05-15T07:48:05.144Z,125248
2018-05-15T07:49:05.090Z,119328
2018-05-15T07:50:05.107Z,110208
2018-05-15T07:51:05.172Z,101248
2018-05-15T07:52:05.036Z,95136
2018-05-15T07:53:05.098Z,93504
2018-05-15T07:54:05.106Z,96992
2018-05-15T07:55:05.107Z,104800
2018-05-15T07:56:05.079Z,116192
2018-05-15T07:57:05.115Z,123648
2018-05-15T07:58:05.140Z,124064
2018-05-15T07:59:05.166Z,121600
2018-05-15T08:00:05.152Z,118624
2018-05-15T08:01:05.077Z,112384
2018-05-15T08:02:05.180Z,106816
2018-05-15T08:03:05.150Z,107744
2018-05-15T08:04:05.147Z,104768
2018-05-15T08:05:05.080Z,90656
2018-05-15T08:06:05.103Z,100896
2018-05-15T08:07:05.042Z,110080
2018-05-15T08:08:05.152Z,111232
2018-05-15T08:09:05.150Z,115584
2018-05-15T08:10:05.098Z,113984
2018-05-15T08:11:05.086Z,112160
2018-05-15T08:12:05.150Z,108448
2018-05-15T08:13:05.151Z,106656
2018-05-15T08:14:05.151Z,105728
2018-05-15T08:15:05.086Z,101888
2018-05-15T08:16:05.155Z,98304
2018-05-15T08:17:05.155Z,94592
2018-05-15T08:18:05.102Z,91616
2018-05-15T08:19:05.169Z,92096
2018-05-15T08:20:05.125Z,93920
2018-05-15T08:21:05.136Z,102144
2018-05-15T08:22:05.077Z,107616
2018-05-15T08:23:05.163Z,109376
2018-05-15T08:24:05.101Z,112416
2018-05-15T08:25:05.156Z,100224
2018-05-15T08:26:05.125Z,106240
2018-05-15T08:27:05.175Z,104096
2018-05-15T08:28:05.139Z,102528
2018-05-15T08:29:05.132Z,104288
2018-05-15T08:30:05.055Z,105792
2018-05-15T08:31:05.141Z,88352
2018-05-15T08:32:05.099Z,108768
2018-05-15T08:33:05.094Z,109696
2018-05-15T08:34:05.057Z,109216
2018-05-15T08:35:05.117Z,108704
2018-05-15T08:36:05.031Z,106656
2018-05-15T08:37:05.091Z,102752
2018-05-15T08:38:05.149Z,101056
2018-05-15T08:39:05.097Z,102464
2018-05-15T08:40:05.067Z,103072
2018-05-15T08:41:05.102Z,109120
2018-05-15T08:42:05.167Z,113984
2018-05-15T08:43:05.159Z,117504
2018-05-15T08:44:05.123Z,116064
2018-05-15T08:45:05.102Z,118784
2018-05-15T08:46:05.075Z,114752
2018-05-15T08:47:05.167Z,114112
2018-05-15T08:48:05.079Z,108448
2018-05-15T08:49:05.163Z,107040
2018-05-15T08:50:05.080Z,109248
2018-05-15T08:51:05.148Z,112064
2018-05-15T08:52:05.179Z,111680
2018-05-15T08:53:05.152Z,114432
2018-05-15T08:54:05.104Z,118464
2018-05-15T08:55:05.175Z,119648
2018-05-15T08:56:05.086Z,121760
2018-05-15T08:57:05.181Z,123360
2018-05-15T08:58:05.178Z,122976
2018-05-15T08:59:05.082Z,114848
2018-05-15T09:00:05.207Z,114816
2018-05-15T09:01:05.202Z,114240
2018-05-15T09:02:05.189Z,107360
2018-05-15T09:03:05.146Z,104608
2018-05-15T09:04:05.087Z,105888
2018-05-15T09:05:05.223Z,106400
2018-05-15T09:06:05.141Z,117184
2018-05-15T09:07:05.160Z,125504
2018-05-15T09:08:05.163Z,134688
2018-05-15T09:09:05.108Z,147136
2018-05-15T09:10:05.163Z,151872
2018-05-15T09:11:05.183Z,146944
2018-05-15T09:12:05.087Z,135520
2018-05-15T09:13:05.207Z,136544
2018-05-15T09:14:05.211Z,136192
2018-05-15T09:15:05.218Z,135264
2018-05-15T09:16:05.206Z,134304
2018-05-15T09:17:05.197Z,135680
2018-05-15T09:18:05.101Z,141888
2018-05-15T09:19:05.147Z,146272
2018-05-15T09:20:05.104Z,147424
2018-05-15T09:21:05.145Z,146144
2018-05-15T09:22:05.186Z,148480
2018-05-15T09:23:05.123Z,148864
2018-05-15T09:24:05.186Z,146464
2018-05-15T09:25:05.189Z,143680
2018-05-15T09:26:05.187Z,142432
2018-05-15T09:27:05.229Z,141568
2018-05-15T09:28:05.133Z,140480
2018-05-15T09:29:05.235Z,139456
2018-05-15T09:30:05.101Z,138336
2018-05-15T09:31:05.074Z,137600
2018-05-15T09:32:05.136Z,138816
2018-05-15T09:33:05.109Z,140192
2018-05-15T09:34:05.068Z,141920
2018-05-15T09:35:05.091Z,143776
2018-05-15T09:36:05.202Z,145856
2018-05-15T09:37:05.109Z,149408
2018-05-15T09:38:05.102Z,152128
2018-05-15T09:39:05.196Z,152640
2018-05-15T09:40:05.208Z,152352
2018-05-15T09:41:05.209Z,150304
2018-05-15T09:42:05.147Z,142624
2018-05-15T09:43:05.212Z,138272
2018-05-15T09:44:05.147Z,132544
2018-05-15T09:45:05.141Z,130816
2018-05-15T09:46:05.250Z,132384
2018-05-15T09:47:05.208Z,136736
2018-05-15T09:48:05.212Z,140832
2018-05-15T09:49:05.213Z,144640
2018-05-15T09:50:05.176Z,149216
2018-05-15T09:51:05.196Z,149216
2018-05-15T09:52:05.137Z,146304
2018-05-15T09:53:05.229Z,147072
2018-05-15T09:54:05.237Z,66528
2018-05-15T09:55:05.186Z,154720
2018-05-15T09:56:05.136Z,163968
2018-05-15T09:57:05.196Z,168192
2018-05-15T09:58:05.255Z,173824
2018-05-15T09:59:05.190Z,172096
2018-05-15T10:00:05.191Z,174304
2018-05-15T10:01:05.160Z,170304
2018-05-15T10:02:05.237Z,162624
2018-05-15T10:03:05.195Z,156064
2018-05-15T10:04:05.182Z,150912
2018-05-15T10:05:05.223Z,148256
2018-05-15T10:06:05.251Z,149312
2018-05-15T10:07:05.182Z,149024
2018-05-15T10:08:05.362Z,151328
2018-05-15T10:09:05.190Z,154912
2018-05-15T10:10:05.198Z,157824
2018-05-15T10:11:05.230Z,152832
2018-05-15T10:12:05.183Z,152608
2018-05-15T10:13:05.225Z,148736
2018-05-15T10:14:05.297Z,142400
2018-05-15T10:15:05.191Z,137600
2018-05-15T10:16:05.266Z,134080
2018-05-15T10:17:05.198Z,134912
2018-05-15T10:18:05.161Z,138272
2018-05-15T10:19:05.257Z,145792
2018-05-15T10:20:05.323Z,155232
2018-05-15T10:21:05.141Z,158208
2018-05-15T10:22:05.159Z,155200
2018-05-15T10:23:05.185Z,151232
2018-05-15T10:24:05.131Z,148224
2018-05-15T10:25:05.196Z,145152
2018-05-15T10:26:05.219Z,145280
2018-05-15T10:27:05.116Z,152640
2018-05-15T10:28:05.188Z,145376
2018-05-15T10:29:05.175Z,149120
2018-05-15T10:30:05.333Z,108416
2018-05-15T10:31:05.212Z,94016
2018-05-15T10:32:05.193Z,112512
2018-05-15T10:33:05.139Z,52672
2018-05-15T10:34:05.270Z,47712
2018-05-15T10:35:05.263Z,142784
2018-05-15T10:36:05.283Z,145824
2018-05-15T10:37:05.291Z,140896
2018-05-15T10:38:05.222Z,145312
2018-05-15T10:39:05.322Z,153184
2018-05-15T10:40:05.144Z,154176
2018-05-15T10:41:05.149Z,147872
2018-05-15T10:42:05.239Z,122144
2018-05-15T10:43:05.241Z,120576
2018-05-15T10:44:05.250Z,61408
2018-05-15T10:45:05.232Z,99936
2018-05-15T10:46:05.246Z,64608
2018-05-15T10:47:05.237Z,60640
2018-05-15T10:48:05.189Z,46720
2018-05-15T10:49:05.242Z,44512
2018-05-15T10:50:05.252Z,44704
2018-05-15T10:51:05.197Z,47680
2018-05-15T10:52:05.251Z,54368
2018-05-15T10:53:05.186Z,54368
2018-05-15T10:54:05.151Z,55424
2018-05-15T10:55:05.256Z,119456
2018-05-15T10:56:05.188Z,120256
2018-05-15T10:57:05.259Z,50464
2018-05-15T10:58:05.230Z,51808
2018-05-15T10:59:05.194Z,53728
2018-05-15T11:00:05.214Z,51296
2018-05-15T11:01:05.193Z,56448
2018-05-15T11:02:05.253Z,154336
2018-05-15T11:03:05.150Z,107392
2018-05-15T11:04:05.249Z,50208
2018-05-15T11:05:05.194Z,150080
2018-05-15T11:06:05.241Z,167072
2018-05-15T11:07:05.215Z,164384
2018-05-15T11:08:05.217Z,163744
2018-05-15T11:09:05.199Z,152672
2018-05-15T11:10:05.202Z,168416
2018-05-15T11:11:05.228Z,44160
2018-05-15T11:12:05.237Z,44032
2018-05-15T11:13:05.307Z,45760
2018-05-15T11:14:05.299Z,51456
2018-05-15T11:15:05.163Z,184736
2018-05-15T11:16:05.290Z,171680
2018-05-15T11:17:05.188Z,177536
2018-05-15T11:18:05.242Z,176000
2018-05-15T11:19:05.283Z,51008
2018-05-15T11:20:05.245Z,46496
2018-05-15T11:21:05.295Z,46688
2018-05-15T11:22:05.291Z,49408
2018-05-15T11:23:05.303Z,54304
2018-05-15T11:24:05.273Z,61600
2018-05-15T11:25:05.293Z,77920
2018-05-15T11:26:05.184Z,57504
2018-05-15T11:27:05.211Z,57120
2018-05-15T11:28:05.253Z,106816
2018-05-15T11:29:05.298Z,130528
2018-05-15T11:30:05.298Z,104352
2018-05-15T11:31:05.236Z,69056
2018-05-15T11:32:05.296Z,54112
2018-05-15T11:33:05.231Z,153344
2018-05-15T11:34:05.240Z,50816
2018-05-15T11:35:05.248Z,53376
2018-05-15T11:36:05.368Z,144704
2018-05-15T11:37:05.301Z,84000
2018-05-15T11:38:05.288Z,60384
2018-05-15T11:39:05.314Z,60608
2018-05-15T11:40:05.246Z,48576
2018-05-15T11:41:05.215Z,43168
2018-05-15T11:42:05.290Z,42560
2018-05-15T11:43:05.214Z,45472
2018-05-15T11:44:05.287Z,46528
2018-05-15T11:45:05.292Z,46720
2018-05-15T11:46:05.241Z,150848
2018-05-15T11:47:05.288Z,154464
2018-05-15T11:48:05.819Z,123072
2018-05-15T11:49:06.467Z,162944
2018-05-15T11:50:06.638Z,169632
2018-05-15T11:51:06.117Z,169024
2018-05-15T11:52:06.076Z,161408
2018-05-15T11:53:05.954Z,153152
2018-05-15T11:54:05.249Z,144512
2018-05-15T11:55:05.231Z,143904
2018-05-15T11:56:05.291Z,112480
2018-05-15T11:57:05.265Z,89568
2018-05-15T11:58:05.249Z,145632
2018-05-15T11:59:05.307Z,106464
2018-05-15T12:00:05.400Z,126912
2018-05-15T12:01:05.287Z,130400
2018-05-15T12:02:05.290Z,60736
2018-05-15T12:03:05.289Z,51072
2018-05-15T12:04:05.261Z,49888
2018-05-15T12:05:05.291Z,51200
2018-05-15T12:06:05.287Z,55296
2018-05-15T12:07:05.288Z,115008
2018-05-15T12:08:05.356Z,119808
2018-05-15T12:09:05.397Z,120064
2018-05-15T12:10:05.190Z,123072
2018-05-15T12:11:05.207Z,120672
2018-05-15T12:12:05.211Z,127264
2018-05-15T12:13:05.343Z,120480
2018-05-15T12:14:05.342Z,121888
2018-05-15T12:15:05.310Z,121408
2018-05-15T12:16:05.390Z,111424
2018-05-15T12:17:05.355Z,91936
2018-05-15T12:18:05.261Z,76960
2018-05-15T12:19:05.434Z,58016
2018-05-15T12:20:05.209Z,57376
2018-05-15T12:21:05.334Z,57568
2018-05-15T12:22:05.288Z,63264
2018-05-15T12:23:05.325Z,98016
2018-05-15T12:24:05.283Z,42816
2018-05-15T12:25:05.312Z,34688
2018-05-15T12:26:05.332Z,29856
2018-05-15T12:27:05.346Z,26048
2018-05-15T12:28:05.407Z,23008
2018-05-15T12:29:05.241Z,20960
2018-05-15T12:30:05.285Z,19776
2018-05-15T12:31:05.319Z,19036
2018-05-15T12:32:05.318Z,19248
2018-05-15T12:33:05.215Z,20384
2018-05-15T12:34:05.252Z,21728
2018-05-15T12:35:05.250Z,23712
2018-05-15T12:36:05.253Z,25952
2018-05-15T12:37:05.252Z,28256
2018-05-15T12:38:05.254Z,30400
2018-05-15T12:39:05.254Z,32480
2018-05-15T12:40:05.256Z,34176
2018-05-15T12:41:05.341Z,35840
2018-05-15T12:42:05.558Z,37632
2018-05-15T12:43:05.320Z,39680
2018-05-15T12:44:05.261Z,42048
2018-05-15T12:45:05.334Z,44704
2018-05-15T12:46:05.256Z,48096
2018-05-15T12:47:05.327Z,52320
2018-05-15T12:48:05.483Z,56640
2018-05-15T12:49:05.330Z,62048
2018-05-15T12:50:05.329Z,152672
2018-05-15T12:51:05.309Z,100640
2018-05-15T12:52:05.292Z,86304
2018-05-15T12:53:05.312Z,62848
2018-05-15T12:54:05.297Z,65440
2018-05-15T12:55:05.283Z,72224
2018-05-15T12:56:05.221Z,52928
2018-05-15T12:57:05.211Z,52768
2018-05-15T12:58:05.230Z,58528
2018-05-15T12:59:05.266Z,62304
2018-05-15T13:00:05.229Z,64448
2018-05-15T13:01:05.236Z,120512
2018-05-15T13:02:05.302Z,125216
2018-05-15T13:03:05.227Z,128448
2018-05-15T13:04:05.269Z,131616
2018-05-15T13:05:05.246Z,130048
2018-05-15T13:06:05.321Z,125248
2018-05-15T13:07:05.330Z,120864
2018-05-15T13:08:05.291Z,108768
2018-05-15T13:09:05.331Z,114720
2018-05-15T13:10:05.288Z,115392
2018-05-15T13:11:05.348Z,123136
2018-05-15T13:12:05.281Z,126176
2018-05-15T13:13:05.278Z,127360
2018-05-15T13:14:05.343Z,124128
2018-05-15T13:15:05.351Z,115872
2018-05-15T13:16:05.279Z,111616